sensor_id;sensor_type;location;lat;lon;timestamp;P1;durP1;ratioP1;P2;durP2;ratioP2
57303;SDS011;43150;50.986;18.208;2023-03-01T00:01:39;46.00;;;21.20;;
57303;SDS011;43150;50.986;18.208;2023-03-01T00:04:05;49.90;;;24.40;;
57303;SDS011;43150;50.986;18.208;2023-03-01T00:06:31;51.60;;;24.80;;
57303;SDS011;43150;50.986;18.208;2023-03-01T00:08:57;59.50;;;24.90;;
57303;SDS011;43150;50.986;18.208;2023-03-01T00:11:24;50.30;;;23.70;;
57303;SDS011;43150;50.986;18.208;2023-03-01T00:13:51;54.10;;;24.80;;
57303;SDS011;43150;50.986;18.208;2023-03-01T00:16:21;49.80;;;26.10;;
57303;SDS011;43150;50.986;18.208;2023-03-01T00:18:47;60.50;;;27.40;;
57303;SDS011;43150;50.986;18.208;2023-03-01T00:21:13;61.80;;;28.90;;
57303;SDS011;43150;50.986;18.208;2023-03-01T00:23:40;62.00;;;28.80;;
57303;SDS011;43150;50.986;18.208;2023-03-01T00:26:07;54.30;;;25.90;;
57303;SDS011;43150;50.986;18.208;2023-03-01T00:28:32;69.00;;;30.10;;
57303;SDS011;43150;50.986;18.208;2023-03-01T00:31:09;33.20;;;16.80;;
57303;SDS011;43150;50.986;18.208;2023-03-01T00:33:35;66.60;;;28.40;;
57303;SDS011;43150;50.986;18.208;2023-03-01T00:36:01;63.30;;;29.40;;
57303;SDS011;43150;50.986;18.208;2023-03-01T00:38:26;68.20;;;29.00;;
57303;SDS011;43150;50.986;18.208;2023-03-01T00:40:52;54.30;;;29.50;;
57303;SDS011;43150;50.986;18.208;2023-03-01T00:43:17;72.90;;;31.70;;
57303;SDS011;43150;50.986;18.208;2023-03-01T00:45:43;68.80;;;30.80;;
57303;SDS011;43150;50.986;18.208;2023-03-01T00:48:09;67.40;;;30.10;;
57303;SDS011;43150;50.986;18.208;2023-03-01T00:50:34;55.70;;;28.50;;
57303;SDS011;43150;50.986;18.208;2023-03-01T00:53:00;62.40;;;27.60;;
57303;SDS011;43150;50.986;18.208;2023-03-01T00:55:25;58.90;;;27.10;;
57303;SDS011;43150;50.986;18.208;2023-03-01T00:57:51;51.10;;;24.20;;
57303;SDS011;43150;50.986;18.208;2023-03-01T01:00:17;61.00;;;29.80;;
57303;SDS011;43150;50.986;18.208;2023-03-01T01:02:47;47.00;;;26.00;;
57303;SDS011;43150;50.986;18.208;2023-03-01T01:05:13;70.20;;;31.50;;
57303;SDS011;43150;50.986;18.208;2023-03-01T01:07:43;63.60;;;29.80;;
57303;SDS011;43150;50.986;18.208;2023-03-01T01:10:09;60.10;;;30.40;;
57303;SDS011;43150;50.986;18.208;2023-03-01T01:12:43;77.40;;;30.60;;
57303;SDS011;43150;50.986;18.208;2023-03-01T01:15:09;66.80;;;28.90;;
57303;SDS011;43150;50.986;18.208;2023-03-01T01:17:37;72.70;;;31.60;;
57303;SDS011;43150;50.986;18.208;2023-03-01T01:20:03;74.90;;;31.90;;
57303;SDS011;43150;50.986;18.208;2023-03-01T01:22:29;137.60;;;47.80;;
57303;SDS011;43150;50.986;18.208;2023-03-01T01:24:55;154.40;;;55.90;;
57303;SDS011;43150;50.986;18.208;2023-03-01T01:27:20;134.20;;;49.60;;
57303;SDS011;43150;50.986;18.208;2023-03-01T01:29:46;107.70;;;44.60;;
57303;SDS011;43150;50.986;18.208;2023-03-01T01:32:22;77.00;;;35.90;;
57303;SDS011;43150;50.986;18.208;2023-03-01T01:34:50;203.50;;;66.70;;
57303;SDS011;43150;50.986;18.208;2023-03-01T01:37:15;102.00;;;40.80;;
57303;SDS011;43150;50.986;18.208;2023-03-01T01:39:41;95.30;;;38.30;;
57303;SDS011;43150;50.986;18.208;2023-03-01T01:42:09;103.60;;;42.40;;
57303;SDS011;43150;50.986;18.208;2023-03-01T01:44:39;80.60;;;33.60;;
57303;SDS011;43150;50.986;18.208;2023-03-01T01:47:05;84.70;;;36.70;;
57303;SDS011;43150;50.986;18.208;2023-03-01T01:52:07;79.70;;;32.70;;
57303;SDS011;43150;50.986;18.208;2023-03-01T01:54:57;77.20;;;34.70;;
57303;SDS011;43150;50.986;18.208;2023-03-01T01:57:25;84.60;;;36.10;;
57303;SDS011;43150;50.986;18.208;2023-03-01T01:59:54;74.00;;;32.60;;
57303;SDS011;43150;50.986;18.208;2023-03-01T02:02:21;41.20;;;20.70;;
57303;SDS011;43150;50.986;18.208;2023-03-01T02:04:47;61.40;;;27.00;;
57303;SDS011;43150;50.986;18.208;2023-03-01T02:07:15;42.40;;;20.50;;
57303;SDS011;43150;50.986;18.208;2023-03-01T02:09:43;31.00;;;16.90;;
57303;SDS011;43150;50.986;18.208;2023-03-01T02:12:10;76.70;;;31.60;;
57303;SDS011;43150;50.986;18.208;2023-03-01T02:14:36;68.60;;;28.80;;
57303;SDS011;43150;50.986;18.208;2023-03-01T02:17:01;74.50;;;30.10;;
57303;SDS011;43150;50.986;18.208;2023-03-01T02:22:13;64.20;;;28.50;;
57303;SDS011;43150;50.986;18.208;2023-03-01T02:24:43;67.00;;;32.20;;
57303;SDS011;43150;50.986;18.208;2023-03-01T02:27:12;70.20;;;31.00;;
57303;SDS011;43150;50.986;18.208;2023-03-01T02:29:38;73.90;;;32.90;;
57303;SDS011;43150;50.986;18.208;2023-03-01T02:32:04;77.30;;;33.40;;
57303;SDS011;43150;50.986;18.208;2023-03-01T02:34:30;72.70;;;33.20;;
57303;SDS011;43150;50.986;18.208;2023-03-01T02:36:58;59.20;;;31.50;;
57303;SDS011;43150;50.986;18.208;2023-03-01T02:39:27;78.90;;;32.70;;
57303;SDS011;43150;50.986;18.208;2023-03-01T02:41:54;76.20;;;34.80;;
57303;SDS011;43150;50.986;18.208;2023-03-01T02:44:21;85.40;;;36.90;;
57303;SDS011;43150;50.986;18.208;2023-03-01T02:46:48;93.30;;;37.50;;
57303;SDS011;43150;50.986;18.208;2023-03-01T02:52:17;80.50;;;35.90;;
57303;SDS011;43150;50.986;18.208;2023-03-01T02:54:51;75.40;;;33.40;;
57303;SDS011;43150;50.986;18.208;2023-03-01T02:57:18;74.60;;;33.90;;
57303;SDS011;43150;50.986;18.208;2023-03-01T02:59:44;84.70;;;34.20;;
57303;SDS011;43150;50.986;18.208;2023-03-01T03:02:22;70.60;;;32.70;;
57303;SDS011;43150;50.986;18.208;2023-03-01T03:05:05;69.50;;;35.00;;
57303;SDS011;43150;50.986;18.208;2023-03-01T03:07:34;78.70;;;35.70;;
57303;SDS011;43150;50.986;18.208;2023-03-01T03:10:02;68.10;;;33.70;;
57303;SDS011;43150;50.986;18.208;2023-03-01T03:12:28;79.70;;;32.90;;
57303;SDS011;43150;50.986;18.208;2023-03-01T03:14:53;84.30;;;35.00;;
57303;SDS011;43150;50.986;18.208;2023-03-01T03:17:19;78.60;;;35.50;;
57303;SDS011;43150;50.986;18.208;2023-03-01T03:19:44;88.30;;;37.10;;
57303;SDS011;43150;50.986;18.208;2023-03-01T03:22:13;91.30;;;37.00;;
57303;SDS011;43150;50.986;18.208;2023-03-01T03:24:39;84.70;;;36.00;;
57303;SDS011;43150;50.986;18.208;2023-03-01T03:27:05;79.10;;;34.90;;
57303;SDS011;43150;50.986;18.208;2023-03-01T03:29:31;77.90;;;35.40;;
57303;SDS011;43150;50.986;18.208;2023-03-01T03:31:57;90.90;;;37.40;;
57303;SDS011;43150;50.986;18.208;2023-03-01T03:34:23;72.70;;;34.60;;
57303;SDS011;43150;50.986;18.208;2023-03-01T03:36:52;64.20;;;29.10;;
57303;SDS011;43150;50.986;18.208;2023-03-01T03:39:22;48.20;;;22.00;;
57303;SDS011;43150;50.986;18.208;2023-03-01T03:41:48;55.30;;;26.00;;
57303;SDS011;43150;50.986;18.208;2023-03-01T03:44:14;58.00;;;28.90;;
57303;SDS011;43150;50.986;18.208;2023-03-01T03:46:39;61.90;;;31.10;;
57303;SDS011;43150;50.986;18.208;2023-03-01T03:49:05;71.10;;;32.80;;
57303;SDS011;43150;50.986;18.208;2023-03-01T03:51:31;80.70;;;33.20;;
57303;SDS011;43150;50.986;18.208;2023-03-01T03:53:56;60.80;;;28.50;;
57303;SDS011;43150;50.986;18.208;2023-03-01T03:56:22;71.90;;;28.40;;
57303;SDS011;43150;50.986;18.208;2023-03-01T03:58:51;84.00;;;34.80;;
57303;SDS011;43150;50.986;18.208;2023-03-01T04:01:17;73.30;;;32.40;;
57303;SDS011;43150;50.986;18.208;2023-03-01T04:03:43;45.00;;;22.40;;
57303;SDS011;43150;50.986;18.208;2023-03-01T04:06:12;61.30;;;28.50;;
57303;SDS011;43150;50.986;18.208;2023-03-01T04:08:37;64.00;;;31.60;;
57303;SDS011;43150;50.986;18.208;2023-03-01T04:11:03;55.60;;;28.10;;
57303;SDS011;43150;50.986;18.208;2023-03-01T04:13:49;77.20;;;33.40;;
57303;SDS011;43150;50.986;18.208;2023-03-01T04:16:15;80.00;;;35.10;;
57303;SDS011;43150;50.986;18.208;2023-03-01T04:18:41;85.40;;;35.60;;
57303;SDS011;43150;50.986;18.208;2023-03-01T04:21:07;104.70;;;46.80;;
57303;SDS011;43150;50.986;18.208;2023-03-01T04:23:32;94.40;;;36.60;;
57303;SDS011;43150;50.986;18.208;2023-03-01T04:25:58;104.30;;;40.10;;
57303;SDS011;43150;50.986;18.208;2023-03-01T04:28:25;86.90;;;38.50;;
57303;SDS011;43150;50.986;18.208;2023-03-01T04:30:54;89.10;;;36.30;;
57303;SDS011;43150;50.986;18.208;2023-03-01T04:33:21;82.10;;;34.90;;
57303;SDS011;43150;50.986;18.208;2023-03-01T04:35:47;90.70;;;36.40;;
57303;SDS011;43150;50.986;18.208;2023-03-01T04:38:15;90.00;;;37.20;;
57303;SDS011;43150;50.986;18.208;2023-03-01T04:40:41;81.20;;;36.70;;
57303;SDS011;43150;50.986;18.208;2023-03-01T04:43:08;82.00;;;36.00;;
57303;SDS011;43150;50.986;18.208;2023-03-01T04:45:34;75.70;;;33.90;;
57303;SDS011;43150;50.986;18.208;2023-03-01T04:48:00;71.60;;;30.60;;
57303;SDS011;43150;50.986;18.208;2023-03-01T04:50:26;141.30;;;52.80;;
57303;SDS011;43150;50.986;18.208;2023-03-01T04:52:51;90.00;;;39.10;;
57303;SDS011;43150;50.986;18.208;2023-03-01T04:55:17;74.50;;;31.70;;
57303;SDS011;43150;50.986;18.208;2023-03-01T04:57:43;66.60;;;31.80;;
57303;SDS011;43150;50.986;18.208;2023-03-01T05:00:12;78.30;;;33.90;;
57303;SDS011;43150;50.986;18.208;2023-03-01T05:02:52;76.60;;;33.20;;
57303;SDS011;43150;50.986;18.208;2023-03-01T05:05:21;99.00;;;34.90;;
57303;SDS011;43150;50.986;18.208;2023-03-01T05:07:51;87.90;;;36.80;;
57303;SDS011;43150;50.986;18.208;2023-03-01T05:10:17;97.50;;;39.60;;
57303;SDS011;43150;50.986;18.208;2023-03-01T05:12:42;102.20;;;38.60;;
57303;SDS011;43150;50.986;18.208;2023-03-01T05:15:08;92.90;;;37.10;;
57303;SDS011;43150;50.986;18.208;2023-03-01T05:17:36;93.20;;;38.30;;
57303;SDS011;43150;50.986;18.208;2023-03-01T05:20:02;94.10;;;38.50;;
57303;SDS011;43150;50.986;18.208;2023-03-01T05:22:32;91.80;;;38.20;;
57303;SDS011;43150;50.986;18.208;2023-03-01T05:24:58;108.60;;;39.70;;
57303;SDS011;43150;50.986;18.208;2023-03-01T05:27:23;86.70;;;36.00;;
57303;SDS011;43150;50.986;18.208;2023-03-01T05:29:49;88.00;;;36.80;;
57303;SDS011;43150;50.986;18.208;2023-03-01T05:32:14;82.10;;;37.10;;
57303;SDS011;43150;50.986;18.208;2023-03-01T05:34:41;83.80;;;37.20;;
57303;SDS011;43150;50.986;18.208;2023-03-01T05:37:07;97.90;;;37.50;;
57303;SDS011;43150;50.986;18.208;2023-03-01T05:39:33;93.00;;;36.50;;
57303;SDS011;43150;50.986;18.208;2023-03-01T05:41:59;87.40;;;36.70;;
57303;SDS011;43150;50.986;18.208;2023-03-01T05:44:25;134.60;;;45.70;;
57303;SDS011;43150;50.986;18.208;2023-03-01T05:46:51;89.40;;;37.80;;
57303;SDS011;43150;50.986;18.208;2023-03-01T05:49:17;138.90;;;48.90;;
57303;SDS011;43150;50.986;18.208;2023-03-01T05:51:43;112.60;;;43.80;;
57303;SDS011;43150;50.986;18.208;2023-03-01T05:54:12;114.10;;;45.20;;
57303;SDS011;43150;50.986;18.208;2023-03-01T05:56:37;99.90;;;41.00;;
57303;SDS011;43150;50.986;18.208;2023-03-01T05:59:03;101.20;;;42.70;;
57303;SDS011;43150;50.986;18.208;2023-03-01T06:01:30;90.80;;;41.50;;
57303;SDS011;43150;50.986;18.208;2023-03-01T06:03:56;98.40;;;40.70;;
57303;SDS011;43150;50.986;18.208;2023-03-01T06:06:22;96.30;;;41.30;;
57303;SDS011;43150;50.986;18.208;2023-03-01T06:08:47;93.10;;;43.00;;
57303;SDS011;43150;50.986;18.208;2023-03-01T06:11:13;108.40;;;45.50;;
57303;SDS011;43150;50.986;18.208;2023-03-01T06:13:38;108.70;;;47.10;;
57303;SDS011;43150;50.986;18.208;2023-03-01T06:16:05;117.00;;;51.40;;
57303;SDS011;43150;50.986;18.208;2023-03-01T06:18:31;126.70;;;50.30;;
57303;SDS011;43150;50.986;18.208;2023-03-01T06:20:56;171.40;;;60.50;;
57303;SDS011;43150;50.986;18.208;2023-03-01T06:23:22;138.50;;;56.40;;
57303;SDS011;43150;50.986;18.208;2023-03-01T06:25:48;122.50;;;53.70;;
57303;SDS011;43150;50.986;18.208;2023-03-01T06:28:14;113.20;;;52.50;;
57303;SDS011;43150;50.986;18.208;2023-03-01T06:30:39;123.70;;;52.70;;
57303;SDS011;43150;50.986;18.208;2023-03-01T06:33:05;97.70;;;48.60;;
57303;SDS011;43150;50.986;18.208;2023-03-01T06:35:31;112.30;;;50.00;;
57303;SDS011;43150;50.986;18.208;2023-03-01T06:37:57;100.20;;;50.60;;
57303;SDS011;43150;50.986;18.208;2023-03-01T06:40:23;83.30;;;46.30;;
57303;SDS011;43150;50.986;18.208;2023-03-01T06:42:49;85.20;;;62.30;;
57303;SDS011;43150;50.986;18.208;2023-03-01T06:45:15;80.30;;;62.00;;
57303;SDS011;43150;50.986;18.208;2023-03-01T06:47:41;95.50;;;66.40;;
57303;SDS011;43150;50.986;18.208;2023-03-01T06:50:07;85.50;;;64.80;;
57303;SDS011;43150;50.986;18.208;2023-03-01T06:52:32;94.60;;;65.10;;
57303;SDS011;43150;50.986;18.208;2023-03-01T06:54:58;88.00;;;63.20;;
57303;SDS011;43150;50.986;18.208;2023-03-01T06:57:24;92.50;;;66.80;;
57303;SDS011;43150;50.986;18.208;2023-03-01T06:59:49;108.00;;;74.80;;
57303;SDS011;43150;50.986;18.208;2023-03-01T07:02:15;107.40;;;74.00;;
57303;SDS011;43150;50.986;18.208;2023-03-01T07:04:42;116.20;;;77.20;;
57303;SDS011;43150;50.986;18.208;2023-03-01T07:07:07;148.20;;;91.10;;
57303;SDS011;43150;50.986;18.208;2023-03-01T07:09:36;122.10;;;78.70;;
57303;SDS011;43150;50.986;18.208;2023-03-01T07:12:02;179.30;;;102.70;;
57303;SDS011;43150;50.986;18.208;2023-03-01T07:14:27;156.50;;;87.50;;
57303;SDS011;43150;50.986;18.208;2023-03-01T07:19:25;146.70;;;79.20;;
57303;SDS011;43150;50.986;18.208;2023-03-01T07:21:55;112.20;;;69.50;;
57303;SDS011;43150;50.986;18.208;2023-03-01T07:24:21;72.00;;;59.20;;
57303;SDS011;43150;50.986;18.208;2023-03-01T07:26:50;71.30;;;60.60;;
57303;SDS011;43150;50.986;18.208;2023-03-01T07:29:17;70.60;;;59.60;;
57303;SDS011;43150;50.986;18.208;2023-03-01T07:31:42;63.00;;;54.60;;
57303;SDS011;43150;50.986;18.208;2023-03-01T07:34:08;62.60;;;55.50;;
57303;SDS011;43150;50.986;18.208;2023-03-01T07:36:37;73.20;;;59.50;;
57303;SDS011;43150;50.986;18.208;2023-03-01T07:39:03;67.70;;;58.00;;
57303;SDS011;43150;50.986;18.208;2023-03-01T07:41:29;74.90;;;61.30;;
57303;SDS011;43150;50.986;18.208;2023-03-01T07:43:55;82.40;;;63.70;;
57303;SDS011;43150;50.986;18.208;2023-03-01T07:46:21;65.90;;;58.30;;
57303;SDS011;43150;50.986;18.208;2023-03-01T07:48:47;69.60;;;59.60;;
57303;SDS011;43150;50.986;18.208;2023-03-01T07:51:13;88.80;;;59.50;;
57303;SDS011;43150;50.986;18.208;2023-03-01T07:53:38;97.30;;;61.10;;
57303;SDS011;43150;50.986;18.208;2023-03-01T07:56:07;73.80;;;57.50;;
57303;SDS011;43150;50.986;18.208;2023-03-01T07:58:40;82.80;;;61.30;;
57303;SDS011;43150;50.986;18.208;2023-03-01T08:01:07;88.90;;;62.80;;
57303;SDS011;43150;50.986;18.208;2023-03-01T08:03:33;81.00;;;62.90;;
57303;SDS011;43150;50.986;18.208;2023-03-01T08:05:59;79.50;;;62.60;;
57303;SDS011;43150;50.986;18.208;2023-03-01T08:08:25;84.80;;;64.40;;
57303;SDS011;43150;50.986;18.208;2023-03-01T08:10:51;75.00;;;60.60;;
57303;SDS011;43150;50.986;18.208;2023-03-01T08:13:16;63.90;;;55.80;;
57303;SDS011;43150;50.986;18.208;2023-03-01T08:15:50;61.90;;;53.70;;
57303;SDS011;43150;50.986;18.208;2023-03-01T08:18:16;61.60;;;53.30;;
57303;SDS011;43150;50.986;18.208;2023-03-01T08:20:42;61.50;;;50.30;;
57303;SDS011;43150;50.986;18.208;2023-03-01T08:23:07;62.90;;;54.00;;
57303;SDS011;43150;50.986;18.208;2023-03-01T08:25:33;63.90;;;55.70;;
57303;SDS011;43150;50.986;18.208;2023-03-01T08:27:59;66.30;;;56.10;;
57303;SDS011;43150;50.986;18.208;2023-03-01T08:30:24;52.70;;;47.10;;
57303;SDS011;43150;50.986;18.208;2023-03-01T08:32:50;50.20;;;44.20;;
57303;SDS011;43150;50.986;18.208;2023-03-01T08:35:16;48.80;;;43.20;;
57303;SDS011;43150;50.986;18.208;2023-03-01T08:37:42;49.60;;;44.30;;
57303;SDS011;43150;50.986;18.208;2023-03-01T08:40:08;49.50;;;43.90;;
57303;SDS011;43150;50.986;18.208;2023-03-01T08:42:35;47.60;;;42.50;;
57303;SDS011;43150;50.986;18.208;2023-03-01T08:45:05;45.80;;;41.10;;
57303;SDS011;43150;50.986;18.208;2023-03-01T08:47:31;40.50;;;36.00;;
57303;SDS011;43150;50.986;18.208;2023-03-01T08:49:59;40.50;;;36.10;;
57303;SDS011;43150;50.986;18.208;2023-03-01T08:52:24;39.10;;;34.50;;
57303;SDS011;43150;50.986;18.208;2023-03-01T08:54:53;35.80;;;32.10;;
57303;SDS011;43150;50.986;18.208;2023-03-01T08:57:18;38.30;;;34.30;;
57303;SDS011;43150;50.986;18.208;2023-03-01T08:59:44;41.90;;;36.40;;
57303;SDS011;43150;50.986;18.208;2023-03-01T09:02:11;34.80;;;31.10;;
57303;SDS011;43150;50.986;18.208;2023-03-01T09:04:37;32.30;;;29.10;;
57303;SDS011;43150;50.986;18.208;2023-03-01T09:07:04;30.30;;;27.10;;
57303;SDS011;43150;50.986;18.208;2023-03-01T09:09:29;27.30;;;24.50;;
57303;SDS011;43150;50.986;18.208;2023-03-01T09:11:55;28.00;;;25.10;;
57303;SDS011;43150;50.986;18.208;2023-03-01T09:14:21;19.90;;;17.90;;
57303;SDS011;43150;50.986;18.208;2023-03-01T09:16:52;22.80;;;20.50;;
57303;SDS011;43150;50.986;18.208;2023-03-01T09:19:18;22.80;;;20.50;;
57303;SDS011;43150;50.986;18.208;2023-03-01T09:21:44;27.80;;;25.10;;
57303;SDS011;43150;50.986;18.208;2023-03-01T09:24:20;37.50;;;33.70;;
57303;SDS011;43150;50.986;18.208;2023-03-01T09:26:46;36.20;;;32.60;;
57303;SDS011;43150;50.986;18.208;2023-03-01T09:29:14;30.10;;;27.10;;
57303;SDS011;43150;50.986;18.208;2023-03-01T09:31:40;31.20;;;28.00;;
57303;SDS011;43150;50.986;18.208;2023-03-01T09:34:06;31.60;;;28.30;;
57303;SDS011;43150;50.986;18.208;2023-03-01T09:36:32;25.40;;;22.90;;
57303;SDS011;43150;50.986;18.208;2023-03-01T09:39:00;24.10;;;21.80;;
57303;SDS011;43150;50.986;18.208;2023-03-01T09:44:03;21.90;;;19.70;;
57303;SDS011;43150;50.986;18.208;2023-03-01T09:46:36;22.20;;;20.20;;
57303;SDS011;43150;50.986;18.208;2023-03-01T09:49:04;19.00;;;17.20;;
57303;SDS011;43150;50.986;18.208;2023-03-01T09:51:33;20.80;;;18.80;;
57303;SDS011;43150;50.986;18.208;2023-03-01T09:54:00;22.00;;;19.80;;
57303;SDS011;43150;50.986;18.208;2023-03-01T09:58:58;22.50;;;20.30;;
57303;SDS011;43150;50.986;18.208;2023-03-01T10:01:35;24.00;;;21.70;;
57303;SDS011;43150;50.986;18.208;2023-03-01T10:06:36;23.20;;;20.90;;
57303;SDS011;43150;50.986;18.208;2023-03-01T10:11:36;28.30;;;25.40;;
57303;SDS011;43150;50.986;18.208;2023-03-01T10:14:03;32.30;;;29.10;;
57303;SDS011;43150;50.986;18.208;2023-03-01T10:19:30;25.80;;;23.40;;
57303;SDS011;43150;50.986;18.208;2023-03-01T10:21:57;27.10;;;24.20;;
57303;SDS011;43150;50.986;18.208;2023-03-01T10:24:26;26.70;;;24.20;;
57303;SDS011;43150;50.986;18.208;2023-03-01T10:26:57;24.30;;;21.90;;
57303;SDS011;43150;50.986;18.208;2023-03-01T10:32:13;22.50;;;20.40;;
57303;SDS011;43150;50.986;18.208;2023-03-01T10:34:39;23.20;;;20.90;;
57303;SDS011;43150;50.986;18.208;2023-03-01T10:39:35;22.70;;;20.40;;
57303;SDS011;43150;50.986;18.208;2023-03-01T10:42:01;22.30;;;20.20;;
57303;SDS011;43150;50.986;18.208;2023-03-01T10:47:07;23.00;;;20.60;;
57303;SDS011;43150;50.986;18.208;2023-03-01T10:49:37;20.60;;;18.60;;
57303;SDS011;43150;50.986;18.208;2023-03-01T10:52:17;20.90;;;19.00;;
57303;SDS011;43150;50.986;18.208;2023-03-01T10:54:43;23.50;;;21.30;;
57303;SDS011;43150;50.986;18.208;2023-03-01T10:57:33;21.00;;;18.90;;
57303;SDS011;43150;50.986;18.208;2023-03-01T11:00:23;22.00;;;20.00;;
57303;SDS011;43150;50.986;18.208;2023-03-01T11:02:48;20.00;;;18.10;;
57303;SDS011;43150;50.986;18.208;2023-03-01T11:07:52;21.10;;;19.20;;
57303;SDS011;43150;50.986;18.208;2023-03-01T11:10:28;21.10;;;19.00;;
57303;SDS011;43150;50.986;18.208;2023-03-01T11:13:05;21.40;;;19.30;;
57303;SDS011;43150;50.986;18.208;2023-03-01T11:15:31;19.20;;;17.30;;
57303;SDS011;43150;50.986;18.208;2023-03-01T11:17:57;21.50;;;19.40;;
57303;SDS011;43150;50.986;18.208;2023-03-01T11:20:36;22.00;;;19.70;;
57303;SDS011;43150;50.986;18.208;2023-03-01T11:23:04;21.20;;;19.20;;
57303;SDS011;43150;50.986;18.208;2023-03-01T11:25:35;23.10;;;20.70;;
57303;SDS011;43150;50.986;18.208;2023-03-01T11:28:03;22.40;;;20.20;;
57303;SDS011;43150;50.986;18.208;2023-03-01T11:30:34;21.90;;;19.80;;
57303;SDS011;43150;50.986;18.208;2023-03-01T11:33:17;21.30;;;19.20;;
57303;SDS011;43150;50.986;18.208;2023-03-01T11:35:49;20.10;;;18.20;;
57303;SDS011;43150;50.986;18.208;2023-03-01T11:38:21;20.10;;;18.30;;
57303;SDS011;43150;50.986;18.208;2023-03-01T11:48:33;19.40;;;17.60;;
57303;SDS011;43150;50.986;18.208;2023-03-01T11:53:51;20.10;;;18.20;;
57303;SDS011;43150;50.986;18.208;2023-03-01T12:01:19;17.70;;;15.80;;
57303;SDS011;43150;50.986;18.208;2023-03-01T12:11:49;21.70;;;19.40;;
57303;SDS011;43150;50.986;18.208;2023-03-01T12:17:11;23.20;;;20.80;;
57303;SDS011;43150;50.986;18.208;2023-03-01T12:37:31;23.60;;;16.20;;
57303;SDS011;43150;50.986;18.208;2023-03-01T12:48:01;26.00;;;16.80;;
57303;SDS011;43150;50.986;18.208;2023-03-01T12:50:41;22.40;;;15.00;;
57303;SDS011;43150;50.986;18.208;2023-03-01T12:55:53;20.50;;;12.20;;
57303;SDS011;43150;50.986;18.208;2023-03-01T13:08:54;23.50;;;21.00;;
57303;SDS011;43150;50.986;18.208;2023-03-01T13:11:21;23.60;;;21.10;;
57303;SDS011;43150;50.986;18.208;2023-03-01T13:13:48;24.00;;;21.50;;
57303;SDS011;43150;50.986;18.208;2023-03-01T13:16:21;24.10;;;21.50;;
57303;SDS011;43150;50.986;18.208;2023-03-01T13:18:48;24.70;;;22.20;;
57303;SDS011;43150;50.986;18.208;2023-03-01T13:21:28;23.60;;;21.10;;
57303;SDS011;43150;50.986;18.208;2023-03-01T13:23:54;23.80;;;21.30;;
57303;SDS011;43150;50.986;18.208;2023-03-01T13:26:20;22.40;;;20.00;;
57303;SDS011;43150;50.986;18.208;2023-03-01T13:33:44;18.70;;;16.70;;
57303;SDS011;43150;50.986;18.208;2023-03-01T13:36:10;17.70;;;16.00;;
57303;SDS011;43150;50.986;18.208;2023-03-01T13:38:44;20.10;;;18.00;;
57303;SDS011;43150;50.986;18.208;2023-03-01T13:41:11;18.00;;;16.00;;
57303;SDS011;43150;50.986;18.208;2023-03-01T13:43:38;16.80;;;15.00;;
57303;SDS011;43150;50.986;18.208;2023-03-01T13:46:11;15.80;;;14.20;;
57303;SDS011;43150;50.986;18.208;2023-03-01T13:48:38;16.40;;;14.80;;
57303;SDS011;43150;50.986;18.208;2023-03-01T13:51:05;14.90;;;13.40;;
57303;SDS011;43150;50.986;18.208;2023-03-01T13:53:36;16.70;;;15.00;;
57303;SDS011;43150;50.986;18.208;2023-03-01T13:58:31;16.50;;;14.90;;
57303;SDS011;43150;50.986;18.208;2023-03-01T14:01:02;16.20;;;14.50;;
57303;SDS011;43150;50.986;18.208;2023-03-01T14:03:29;17.50;;;15.50;;
57303;SDS011;43150;50.986;18.208;2023-03-01T14:08:27;20.70;;;18.60;;
57303;SDS011;43150;50.986;18.208;2023-03-01T14:11:08;19.40;;;17.40;;
57303;SDS011;43150;50.986;18.208;2023-03-01T14:21:44;18.30;;;16.40;;
57303;SDS011;43150;50.986;18.208;2023-03-01T14:24:22;22.40;;;20.00;;
57303;SDS011;43150;50.986;18.208;2023-03-01T14:26:53;19.40;;;17.40;;
57303;SDS011;43150;50.986;18.208;2023-03-01T14:29:33;20.70;;;18.60;;
57303;SDS011;43150;50.986;18.208;2023-03-01T14:34:45;25.40;;;22.80;;
57303;SDS011;43150;50.986;18.208;2023-03-01T14:37:19;21.80;;;19.50;;
57303;SDS011;43150;50.986;18.208;2023-03-01T14:39:45;22.00;;;19.60;;
57303;SDS011;43150;50.986;18.208;2023-03-01T14:42:11;22.20;;;20.00;;
57303;SDS011;43150;50.986;18.208;2023-03-01T14:44:38;22.80;;;20.30;;
57303;SDS011;43150;50.986;18.208;2023-03-01T14:47:05;22.90;;;20.60;;
57303;SDS011;43150;50.986;18.208;2023-03-01T14:49:33;24.80;;;22.20;;
57303;SDS011;43150;50.986;18.208;2023-03-01T14:52:05;23.80;;;21.30;;
57303;SDS011;43150;50.986;18.208;2023-03-01T14:57:00;27.70;;;20.40;;
57303;SDS011;43150;50.986;18.208;2023-03-01T14:59:26;22.20;;;19.80;;
57303;SDS011;43150;50.986;18.208;2023-03-01T15:01:52;20.70;;;18.50;;
57303;SDS011;43150;50.986;18.208;2023-03-01T15:04:19;21.60;;;19.30;;
57303;SDS011;43150;50.986;18.208;2023-03-01T15:06:47;21.50;;;18.60;;
57303;SDS011;43150;50.986;18.208;2023-03-01T15:09:14;19.20;;;17.20;;
57303;SDS011;43150;50.986;18.208;2023-03-01T15:11:41;23.70;;;21.10;;
57303;SDS011;43150;50.986;18.208;2023-03-01T15:16:53;22.10;;;19.60;;
57303;SDS011;43150;50.986;18.208;2023-03-01T15:19:20;21.30;;;18.30;;
57303;SDS011;43150;50.986;18.208;2023-03-01T15:21:49;21.80;;;19.40;;
57303;SDS011;43150;50.986;18.208;2023-03-01T15:24:20;22.70;;;20.20;;
57303;SDS011;43150;50.986;18.208;2023-03-01T15:26:53;24.20;;;21.60;;
57303;SDS011;43150;50.986;18.208;2023-03-01T15:29:25;25.70;;;22.30;;
57303;SDS011;43150;50.986;18.208;2023-03-01T15:32:02;24.50;;;21.80;;
57303;SDS011;43150;50.986;18.208;2023-03-01T15:34:32;26.90;;;22.70;;
57303;SDS011;43150;50.986;18.208;2023-03-01T15:36:58;26.00;;;23.20;;
57303;SDS011;43150;50.986;18.208;2023-03-01T15:39:27;26.50;;;23.70;;
57303;SDS011;43150;50.986;18.208;2023-03-01T15:41:55;25.40;;;22.40;;
57303;SDS011;43150;50.986;18.208;2023-03-01T15:44:28;27.70;;;23.40;;
57303;SDS011;43150;50.986;18.208;2023-03-01T15:46:54;27.90;;;23.60;;
57303;SDS011;43150;50.986;18.208;2023-03-01T15:51:50;27.10;;;16.80;;
57303;SDS011;43150;50.986;18.208;2023-03-01T15:54:19;25.50;;;14.10;;
57303;SDS011;43150;50.986;18.208;2023-03-01T15:56:45;23.40;;;13.70;;
57303;SDS011;43150;50.986;18.208;2023-03-01T15:59:11;25.80;;;14.70;;
57303;SDS011;43150;50.986;18.208;2023-03-01T16:01:39;23.90;;;14.80;;
57303;SDS011;43150;50.986;18.208;2023-03-01T16:04:05;23.30;;;12.70;;
57303;SDS011;43150;50.986;18.208;2023-03-01T16:06:30;20.50;;;12.70;;
57303;SDS011;43150;50.986;18.208;2023-03-01T16:08:56;20.40;;;11.30;;
57303;SDS011;43150;50.986;18.208;2023-03-01T16:11:21;21.80;;;12.20;;
57303;SDS011;43150;50.986;18.208;2023-03-01T16:13:47;40.00;;;19.00;;
57303;SDS011;43150;50.986;18.208;2023-03-01T16:16:14;44.80;;;18.70;;
57303;SDS011;43150;50.986;18.208;2023-03-01T16:18:45;30.70;;;13.90;;
57303;SDS011;43150;50.986;18.208;2023-03-01T16:21:21;31.30;;;14.90;;